Time;durP1;ratioP1;P1;durP2;ratioP2;P2;SDS_P1;SDS_P2;PMS_P1;PMS_P2;Temp;Humidity;BMP_temperature;BMP_pressure;BME280_temperature;BME280_humidity;BME280_pressure;Samples;Min_cycle;Max_cycle;Signal;HPM_P1;HPM_P2
2022/12/24 00:00:28;;;;;;;;;;;6.00;99.90;;;;;;5052061;28;20422;-92
2022/12/24 00:03:00;;;;;;;;;;;5.40;99.90;;;;;;5048274;28;20296;-92
2022/12/24 00:05:41;;;;;;;;;;;;;;;;;;;;;
2022/12/24 00:08:27;;;;;;;;;;;5.20;99.90;;;;;;5052882;28;19925;-92
2022/12/24 00:11:04;;;;;;;;;;;6.10;99.90;;;;;;5024194;28;20426;-95
2022/12/24 00:13:52;;;;;;;;;;;6.10;99.90;;;;;;5051751;28;19954;-94
2022/12/24 00:16:40;;;;;;;;;;;;;;;;;;;;;
2022/12/24 00:22:24;;;;;;;;;;;;;;;;;;;;;
2022/12/24 00:25:06;;;;;;;;;;;5.70;99.90;;;;;;5087916;28;19939;-94
2022/12/24 00:27:52;;;;;;;;;;;;;;;;;;;;;
2022/12/24 00:30:38;;;;;;;;;;;6.20;99.90;;;;;;5069563;28;19925;-94
2022/12/24 00:33:46;;;;;;;;;;;;;;;;;;;;;
2022/12/24 00:36:24;;;;;;;;;;;5.20;99.90;;;;;;5061837;28;19924;-93
2022/12/24 00:39:13;;;;;;;;;;;6.00;99.90;;;;;;5053871;28;19924;-94
2022/12/24 00:41:39;;;;;;;;;;;6.00;99.90;;;;;;5038331;28;19924;-93
2022/12/24 00:47:11;;;;;;;;;;;6.00;99.90;;;;;;5049363;28;19926;-94
2022/12/24 00:50:07;;;;;;;;;;;5.70;99.90;;;;;;5040027;28;19924;-94
2022/12/24 00:52:51;;;;;;;;;;;6.00;99.90;;;;;;5053537;28;19924;-94
2022/12/24 00:55:38;;;;;;;;;;;;;;;;;;;;;
2022/12/24 00:58:26;;;;;;;;;;;6.00;99.90;;;;;;5048452;28;19935;-94
2022/12/24 01:01:29;;;;;;;;;;;;;;;;;;;;;
2022/12/24 01:06:49;;;;;;;;;;;6.00;99.90;;;;;;5055614;28;20019;-94
2022/12/24 01:09:31;;;;;;;;;;;6.00;99.90;;;;;;5040039;28;19925;-94
2022/12/24 01:12:05;;;;;;;;;;;6.00;99.90;;;;;;5042624;28;19926;-94
2022/12/24 01:20:32;;;;;;;;;;;;;;;;;;;;;
2022/12/24 01:23:05;;;;;;;;;;;6.00;99.90;;;;;;5055609;28;19948;-94
2022/12/24 01:26:06;;;;;;;;;;;6.00;99.90;;;;;;5060615;28;19975;-93
2022/12/24 01:28:48;;;;;;;;;;;6.00;99.90;;;;;;5022960;28;20015;-93
2022/12/24 01:31:35;;;;;;;;;;;6.10;99.90;;;;;;5040081;28;19935;-94
2022/12/24 01:34:15;;;;;;;;;;;5.20;99.90;;;;;;5057991;28;19924;-94
2022/12/24 01:36:47;;;;;;;;;;;6.00;99.90;;;;;;5027083;28;20268;-94
2022/12/24 01:39:39;;;;;;;;;;;6.10;99.90;;;;;;5043487;28;19924;-94
2022/12/24 01:45:33;;;;;;;;;;;6.10;99.90;;;;;;5062934;28;19935;-94
2022/12/24 01:48:31;;;;;;;;;;;6.10;99.90;;;;;;5044903;28;19925;-94
2022/12/24 01:53:59;;;;;;;;;;;6.10;99.90;;;;;;5052611;28;19925;-94
2022/12/24 01:56:31;;;;;;;;;;;6.30;99.90;;;;;;5049076;28;20011;-94
2022/12/24 01:59:03;;;;;;;;;;;6.10;99.90;;;;;;5045166;28;20491;-95
2022/12/24 02:01:41;;;;;;;;;;;6.20;99.90;;;;;;5054782;28;19925;-95
2022/12/24 02:04:30;;;;;;;;;;;6.10;99.90;;;;;;5049586;28;19931;-94
2022/12/24 02:07:24;;;;;;;;;;;5.40;99.90;;;;;;5009105;28;20014;-94
2022/12/24 02:10:01;;;;;;;;;;;5.80;99.90;;;;;;5054527;28;19925;-94
2022/12/24 02:15:22;;;;;;;;;;;6.10;99.90;;;;;;5053524;28;20386;-94
2022/12/24 02:18:33;;;;;;;;;;;6.10;99.90;;;;;;5057017;28;19932;-94
2022/12/24 02:21:32;;;;;;;;;;;;;;;;;;;;;
2022/12/24 02:30:26;;;;;;;;;;;6.20;99.90;;;;;;5069422;28;19925;-94
2022/12/24 02:33:03;;;;;;;;;;;5.60;99.90;;;;;;5040429;28;19972;-95
2022/12/24 02:36:07;;;;;;;;;;;6.30;99.90;;;;;;5043625;28;19925;-93
2022/12/24 02:42:35;;;;;;;;;;;;;;;;;;;;;
2022/12/24 02:45:21;;;;;;;;;;;6.20;99.90;;;;;;5057317;28;19933;-94
2022/12/24 02:51:27;;;;;;;;;;;;;;;;;;;;;
2022/12/24 02:54:32;;;;;;;;;;;;;;;;;;;;;
2022/12/24 02:57:24;;;;;;;;;;;;;;;;;;;;;
2022/12/24 03:00:24;;;;;;;;;;;5.90;99.90;;;;;;5059460;28;20402;-95
2022/12/24 03:03:13;;;;;;;;;;;6.90;99.90;;;;;;5064089;28;19924;-92
2022/12/24 03:05:43;;;;;;;;;;;5.80;99.90;;;;;;5037226;28;20015;-92
2022/12/24 03:08:34;;;;;;;;;;;6.20;99.90;;;;;;5051543;28;19928;-93
2022/12/24 03:11:16;;;;;;;;;;;6.20;99.90;;;;;;5046550;28;20274;-91
2022/12/24 03:13:45;;;;;;;;;;;6.40;99.90;;;;;;5062013;28;19936;-91
2022/12/24 03:16:21;;;;;;;;;;;6.40;99.90;;;;;;5052060;28;19924;-93
2022/12/24 03:19:15;;;;;;;;;;;6.70;99.90;;;;;;5041766;28;19937;-92
2022/12/24 03:21:57;;;;;;;;;;;5.80;99.90;;;;;;5039927;28;19990;-90
2022/12/24 03:24:51;;;;;;;;;;;;;;;;;;;;;
2022/12/24 03:27:54;;;;;;;;;;;7.00;99.90;;;;;;5042850;28;19925;-94
2022/12/24 03:30:42;;;;;;;;;;;6.30;99.90;;;;;;5061349;28;19977;-91
2022/12/24 03:33:26;;;;;;;;;;;7.20;99.90;;;;;;5045648;28;19924;-93
2022/12/24 03:36:12;;;;;;;;;;;7.60;99.90;;;;;;5040525;28;19968;-94
2022/12/24 03:38:49;;;;;;;;;;;7.30;99.90;;;;;;5050563;28;20489;-95
2022/12/24 03:44:32;;;;;;;;;;;6.80;99.90;;;;;;5043781;28;20384;-93
2022/12/24 03:47:23;;;;;;;;;;;;;;;;;;;;;
2022/12/24 03:52:45;;;;;;;;;;;7.30;99.90;;;;;;4995233;28;19936;-94
2022/12/24 03:58:33;;;;;;;;;;;7.40;99.90;;;;;;5050540;28;19924;-94
2022/12/24 04:01:31;;;;;;;;;;;;;;;;;;;;;
2022/12/24 04:04:26;;;;;;;;;;;6.70;99.90;;;;;;5056645;28;19924;-93
2022/12/24 04:10:24;;;;;;;;;;;7.50;99.90;;;;;;5050099;28;19928;-94
2022/12/24 04:13:08;;;;;;;;;;;;;;;;;;;;;
2022/12/24 04:15:52;;;;;;;;;;;7.50;99.90;;;;;;5052435;28;19931;-96
2022/12/24 04:18:44;;;;;;;;;;;7.70;99.90;;;;;;5021284;28;20387;-93
2022/12/24 04:21:24;;;;;;;;;;;6.90;99.90;;;;;;5039151;28;19988;-93
2022/12/24 04:30:27;;;;;;;;;;;7.00;99.90;;;;;;5022158;28;20398;-94
2022/12/24 04:33:09;;;;;;;;;;;7.10;99.90;;;;;;5025167;28;20368;-92
2022/12/24 04:36:02;;;;;;;;;;;8.00;99.90;;;;;;5026327;28;19939;-93
2022/12/24 04:38:36;;;;;;;;;;;7.60;99.90;;;;;;5039402;28;19924;-93
2022/12/24 04:41:19;;;;;;;;;;;;;;;;;;;;;
2022/12/24 04:44:11;;;;;;;;;;;7.60;99.90;;;;;;5055661;28;19925;-94
2022/12/24 04:47:03;;;;;;;;;;;7.50;99.90;;;;;;5055736;28;19967;-94
2022/12/24 04:49:39;;;;;;;;;;;7.50;99.90;;;;;;5027348;28;19971;-93
2022/12/24 04:52:21;;;;;;;;;;;7.50;99.90;;;;;;5071948;28;19931;-93
2022/12/24 04:55:16;;;;;;;;;;;7.50;99.90;;;;;;5081895;28;19920;-96
2022/12/24 04:57:51;;;;;;;;;;;7.90;99.90;;;;;;5068792;28;19920;-95
2022/12/24 05:00:37;;;;;;;;;;;7.40;99.90;;;;;;5052627;28;19919;-96
2022/12/24 05:06:28;;;;;;;;;;;6.70;99.90;;;;;;5095552;28;19912;-93
2022/12/24 05:09:15;;;;;;;;;;;8.20;99.90;;;;;;5045725;28;19929;-94
2022/12/24 05:12:12;;;;;;;;;;;7.50;99.90;;;;;;5045857;28;19955;-93
2022/12/24 05:14:53;;;;;;;;;;;;;;;;;;;;;
2022/12/24 05:17:45;;;;;;;;;;;7.50;99.90;;;;;;5071678;28;19974;-93
2022/12/24 05:20:41;;;;;;;;;;;7.50;99.90;;;;;;5026171;28;19935;-94
2022/12/24 05:28:57;;;;;;;;;;;7.40;99.90;;;;;;5061410;28;19939;-93
2022/12/24 05:31:32;;;;;;;;;;;7.40;99.90;;;;;;5048147;28;19928;-93
2022/12/24 05:34:25;;;;;;;;;;;;;;;;;;;;;
2022/12/24 05:37:07;;;;;;;;;;;6.80;99.90;;;;;;5058916;28;19987;-93
2022/12/24 05:39:37;;;;;;;;;;;7.60;99.90;;;;;;5043083;28;19924;-94
2022/12/24 05:42:21;;;;;;;;;;;;;;;;;;;;;
2022/12/24 05:44:56;;;;;;;;;;;7.10;99.90;;;;;;5059298;28;19979;-93
2022/12/24 05:47:35;;;;;;;;;;;;;;;;;;;;;
2022/12/24 05:50:10;;;;;;;;;;;7.50;99.90;;;;;;5056228;28;20011;-93
2022/12/24 05:55:53;;;;;;;;;;;7.80;99.90;;;;;;4986567;28;20025;-93
2022/12/24 05:58:50;;;;;;;;;;;;;;;;;;;;;
2022/12/24 06:01:24;;;;;;;;;;;7.60;99.90;;;;;;4996883;28;19925;-93
2022/12/24 06:03:56;;;;;;;;;;;7.60;99.90;;;;;;4973803;28;19932;-93
2022/12/24 06:06:27;;;;;;;;;;;7.60;99.90;;;;;;5025004;28;19931;-93
2022/12/24 06:09:04;;;;;;;;;;;7.50;99.90;;;;;;5043142;28;20301;-94
2022/12/24 06:12:00;;;;;;;;;;;7.80;99.90;;;;;;5046092;28;20360;-93
2022/12/24 06:14:36;;;;;;;;;;;6.80;99.90;;;;;;5039964;28;20386;-93
2022/12/24 06:17:01;;;;;;;;;;;7.50;99.90;;;;;;5035536;28;19929;-93
2022/12/24 06:19:34;;;;;;;;;;;7.50;99.90;;;;;;5050422;28;19924;-94
2022/12/24 06:22:11;;;;;;;;;;;7.50;99.90;;;;;;5057666;28;20256;-94
2022/12/24 06:24:57;;;;;;;;;;;8.00;99.90;;;;;;5040987;28;20279;-93
2022/12/24 06:27:28;;;;;;;;;;;7.40;99.90;;;;;;5057381;28;19974;-93
2022/12/24 06:30:16;;;;;;;;;;;7.40;99.90;;;;;;5029218;28;19964;-93
2022/12/24 06:32:47;;;;;;;;;;;7.40;99.90;;;;;;5056638;28;19955;-94
2022/12/24 06:35:41;;;;;;;;;;;7.50;99.90;;;;;;5026093;28;20071;-91
2022/12/24 06:38:15;;;;;;;;;;;7.40;99.90;;;;;;5019288;28;20412;-93
2022/12/24 06:40:46;;;;;;;;;;;7.40;99.90;;;;;;5025801;28;19985;-92
2022/12/24 06:43:51;;;;;;;;;;;;;;;;;;;;;
2022/12/24 06:46:25;;;;;;;;;;;7.50;99.90;;;;;;5048642;28;19924;-92
2022/12/24 06:49:24;;;;;;;;;;;7.50;99.90;;;;;;5040821;28;19928;-94
2022/12/24 06:52:01;;;;;;;;;;;6.90;99.90;;;;;;5048794;28;19924;-93
2022/12/24 06:54:53;;;;;;;;;;;7.40;99.90;;;;;;4980175;28;20280;-93
2022/12/24 07:00:39;;;;;;;;;;;7.30;99.90;;;;;;5013319;28;19933;-91
2022/12/24 07:03:25;;;;;;;;;;;6.80;99.90;;;;;;5021983;28;19925;-94
2022/12/24 07:09:33;;;;;;;;;;;7.30;99.90;;;;;;5055693;28;19940;-93
2022/12/24 07:12:09;;;;;;;;;;;7.20;99.90;;;;;;5038483;28;19925;-95
2022/12/24 07:14:50;;;;;;;;;;;8.20;99.90;;;;;;5037899;28;19943;-91
2022/12/24 07:17:34;;;;;;;;;;;;;;;;;;;;;
2022/12/24 07:20:05;;;;;;;;;;;7.20;99.90;;;;;;5045563;28;20031;-93
2022/12/24 07:22:50;;;;;;;;;;;7.30;99.90;;;;;;5037221;28;19924;-94
2022/12/24 07:25:47;;;;;;;;;;;7.30;99.90;;;;;;4988724;28;19994;-93
2022/12/24 07:28:43;;;;;;;;;;;;;;;;;;;;;
2022/12/24 07:31:19;;;;;;;;;;;6.80;99.90;;;;;;5023635;28;19926;-92
2022/12/24 07:34:10;;;;;;;;;;;;;;;;;;;;;
2022/12/24 07:37:09;;;;;;;;;;;;;;;;;;;;;
2022/12/24 07:39:48;;;;;;;;;;;;;;;;;;;;;
2022/12/24 07:42:26;;;;;;;;;;;7.50;99.90;;;;;;5042405;28;19935;-92
2022/12/24 07:45:34;;;;;;;;;;;7.50;99.90;;;;;;5066940;28;19925;-93
2022/12/24 07:48:06;;;;;;;;;;;7.50;99.90;;;;;;5036931;28;19960;-93
2022/12/24 07:50:55;;;;;;;;;;;;;;;;;;;;;
2022/12/24 07:53:35;;;;;;;;;;;;;;;;;;;;;
2022/12/24 07:56:06;;;;;;;;;;;7.60;99.90;;;;;;5048411;28;20303;-92
2022/12/24 07:58:42;;;;;;;;;;;7.60;99.90;;;;;;5015663;28;19925;-92
2022/12/24 08:01:16;;;;;;;;;;;7.00;99.90;;;;;;5019020;28;19930;-92
2022/12/24 08:03:58;;;;;;;;;;;7.60;99.90;;;;;;5002789;28;20384;-92
2022/12/24 08:06:34;;;;;;;;;;;7.70;99.90;;;;;;4985780;28;19928;-92
2022/12/24 08:09:46;;;;;;;;;;;;;;;;;;;;;
2022/12/24 08:12:25;;;;;;;;;;;;;;;;;;;;;
2022/12/24 08:15:14;;;;;;;;;;;7.70;99.90;;;;;;5055636;28;19931;-92
2022/12/24 08:17:53;;;;;;;;;;;;;;;;;;;;;
2022/12/24 08:23:33;;;;;;;;;;;7.80;99.90;;;;;;5003237;28;19931;-94
2022/12/24 08:26:33;;;;;;;;;;;7.80;99.90;;;;;;5037711;28;19925;-93
2022/12/24 08:29:27;;;;;;;;;;;;;;;;;;;;;
2022/12/24 08:31:56;;;;;;;;;;;7.70;99.90;;;;;;5036188;28;20399;-92
2022/12/24 08:37:31;;;;;;;;;;;7.80;99.90;;;;;;5017084;28;19928;-94
2022/12/24 08:40:38;;;;;;;;;;;7.80;99.90;;;;;;4986959;28;19935;-92
2022/12/24 08:43:24;;;;;;;;;;;;;;;;;;;;;
2022/12/24 08:46:02;;;;;;;;;;;7.80;99.90;;;;;;5009743;28;19984;-93
2022/12/24 08:48:36;;;;;;;;;;;7.80;99.90;;;;;;5025920;28;19937;-94
2022/12/24 08:51:21;;;;;;;;;;;;;;;;;;;;;
2022/12/24 08:54:01;;;;;;;;;;;7.90;99.90;;;;;;5043035;28;19953;-93
2022/12/24 08:56:40;;;;;;;;;;;8.70;99.90;;;;;;5013423;28;20044;-92
2022/12/24 08:59:42;;;;;;;;;;;7.10;99.90;;;;;;5026450;28;20011;-94
2022/12/24 09:02:50;;;;;;;;;;;;;;;;;;;;;
2022/12/24 09:05:26;;;;;;;;;;;7.90;99.90;;;;;;5049081;28;19930;-93
2022/12/24 09:08:00;;;;;;;;;;;7.90;99.90;;;;;;5024945;28;19972;-92
2022/12/24 09:13:27;;;;;;;;;;;;;;;;;;;;;
2022/12/24 09:15:56;;;;;;;;;;;8.00;99.90;;;;;;5041253;28;19931;-93
2022/12/24 09:18:36;;;;;;;;;;;8.00;99.90;;;;;;5021393;28;20008;-94
2022/12/24 09:21:38;;;;;;;;;;;;;;;;;;;;;
2022/12/24 09:27:08;;;;;;;;;;;8.00;99.90;;;;;;5058908;28;19913;-93
2022/12/24 09:29:44;;;;;;;;;;;;;;;;;;;;;
2022/12/24 09:32:48;;;;;;;;;;;;;;;;;;;;;
2022/12/24 09:35:24;;;;;;;;;;;;;;;;;;;;;
2022/12/24 09:38:43;;;;;;;;;;;8.00;99.90;;;;;;4987439;28;19930;-92
2022/12/24 09:41:28;;;;;;;;;;;;;;;;;;;;;
2022/12/24 09:44:23;;;;;;;;;;;7.50;99.90;;;;;;5020791;28;20001;-94
2022/12/24 09:54:13;;;;;;;;;;;;;;;;;;;;;
2022/12/24 09:56:56;;;;;;;;;;;8.20;99.90;;;;;;5071808;28;19928;-93
2022/12/24 09:59:41;;;;;;;;;;;7.70;99.90;;;;;;5048051;28;20380;-92
2022/12/24 10:02:43;;;;;;;;;;;8.50;99.90;;;;;;5059859;28;19954;-92
2022/12/24 10:05:44;;;;;;;;;;;8.40;99.90;;;;;;5083386;28;19924;-91
2022/12/24 10:12:04;;;;;;;;;;;8.30;99.90;;;;;;5041570;28;20019;-92
2022/12/24 10:14:56;;;;;;;;;;;7.70;99.90;;;;;;5066363;28;19957;-91
2022/12/24 10:17:35;;;;;;;;;;;8.30;99.90;;;;;;5063323;28;19950;-93
2022/12/24 10:20:44;;;;;;;;;;;;;;;;;;;;;
2022/12/24 10:23:35;;;;;;;;;;;;;;;;;;;;;
2022/12/24 10:29:38;;;;;;;;;;;8.70;99.90;;;;;;5065305;28;19924;-90
2022/12/24 10:32:37;;;;;;;;;;;8.50;99.90;;;;;;5034875;28;20369;-92
2022/12/24 10:35:18;;;;;;;;;;;8.60;99.90;;;;;;5051315;28;20288;-92
2022/12/24 10:38:09;;;;;;;;;;;8.00;99.90;;;;;;5045514;28;19932;-90
2022/12/24 10:40:49;;;;;;;;;;;;;;;;;;;;;
2022/12/24 10:43:24;;;;;;;;;;;8.20;99.90;;;;;;5065260;28;19924;-91
2022/12/24 10:46:13;;;;;;;;;;;8.80;99.90;;;;;;5046973;28;19931;-91
2022/12/24 10:49:03;;;;;;;;;;;;;;;;;;;;;
2022/12/24 10:51:36;;;;;;;;;;;9.40;99.90;;;;;;5068651;28;19925;-90
2022/12/24 10:54:39;;;;;;;;;;;;;;;;;;;;;
2022/12/24 10:57:31;;;;;;;;;;;9.20;99.90;;;;;;5043139;28;19929;-91
2022/12/24 11:03:14;;;;;;;;;;;9.30;99.90;;;;;;5049600;28;20439;-91
2022/12/24 11:05:45;;;;;;;;;;;9.80;99.90;;;;;;5015860;28;20011;-90
2022/12/24 11:08:25;;;;;;;;;;;9.20;99.90;;;;;;5023734;28;19924;-93
2022/12/24 11:10:59;;;;;;;;;;;9.20;99.90;;;;;;5042955;28;19924;-92
2022/12/24 11:13:29;;;;;;;;;;;9.30;99.90;;;;;;5025764;28;19933;-90
2022/12/24 11:16:04;;;;;;;;;;;9.30;99.90;;;;;;5040051;28;20348;-90
2022/12/24 11:18:38;;;;;;;;;;;9.30;99.90;;;;;;5037353;28;19935;-89
2022/12/24 11:21:48;;;;;;;;;;;9.40;99.90;;;;;;5045301;28;19929;-90
2022/12/24 11:24:30;;;;;;;;;;;9.30;99.90;;;;;;5050880;28;20288;-89
2022/12/24 11:27:26;;;;;;;;;;;8.70;99.90;;;;;;5039084;28;19924;-89
2022/12/24 11:30:21;;;;;;;;;;;9.30;99.90;;;;;;5056863;28;20279;-91
2022/12/24 11:33:18;;;;;;;;;;;;;;;;;;;;;
2022/12/24 11:36:00;;;;;;;;;;;8.60;99.90;;;;;;5067103;28;19958;-89
2022/12/24 11:38:37;;;;;;;;;;;9.20;99.90;;;;;;5042336;28;19924;-88
2022/12/24 11:41:16;;;;;;;;;;;9.20;99.90;;;;;;5038827;28;19930;-88
2022/12/24 11:44:07;;;;;;;;;;;9.20;99.90;;;;;;5042275;28;19925;-91
2022/12/24 11:46:36;;;;;;;;;;;9.10;99.90;;;;;;5055684;28;20342;-90
2022/12/24 11:49:38;;;;;;;;;;;8.60;99.90;;;;;;5038564;28;19947;-91
2022/12/24 11:52:23;;;;;;;;;;;9.10;99.90;;;;;;5043829;28;19924;-92
2022/12/24 11:55:13;;;;;;;;;;;9.10;99.90;;;;;;5056111;28;19924;-92
2022/12/24 11:58:02;;;;;;;;;;;9.20;99.90;;;;;;5043449;28;19935;-93
2022/12/24 12:01:04;;;;;;;;;;;9.20;99.90;;;;;;5075103;28;19928;-89
2022/12/24 12:04:12;;;;;;;;;;;;;;;;;;;;;
2022/12/24 12:10:02;;;;;;;;;;;;;;;;;;;;;
2022/12/24 12:12:40;;;;;;;;;;;8.60;99.90;;;;;;5062566;28;19931;-93
2022/12/24 12:15:38;;;;;;;;;;;9.10;99.90;;;;;;5040611;28;19931;-93
2022/12/24 12:18:35;;;;;;;;;;;9.10;99.90;;;;;;5028859;28;20011;-95
2022/12/24 12:21:18;;;;;;;;;;;9.10;99.90;;;;;;5036266;28;20077;-93
2022/12/24 12:24:26;;;;;;;;;;;;;;;;;;;;;
2022/12/24 12:27:22;;;;;;;;;;;;;;;;;;;;;
2022/12/24 12:30:00;;;;;;;;;;;9.00;99.90;;;;;;5064768;28;19924;-90
2022/12/24 12:32:58;;;;;;;;;;;9.00;99.90;;;;;;5038750;28;19924;-93
2022/12/24 12:35:36;;;;;;;;;;;9.00;99.90;;;;;;5034241;28;20361;-92
2022/12/24 12:38:27;;;;;;;;;;;9.00;99.90;;;;;;5038559;28;19925;-92
2022/12/24 12:41:13;;;;;;;;;;;;;;;;;;;;;
2022/12/24 12:43:59;;;;;;;;;;;9.10;99.90;;;;;;5071620;28;19924;-93
2022/12/24 12:50:28;;;;;;;;;;;9.30;99.90;;;;;;5045307;28;19928;-93
2022/12/24 12:53:25;;;;;;;;;;;9.40;99.90;;;;;;4998012;28;19929;-92
2022/12/24 12:56:13;;;;;;;;;;;;;;;;;;;;;
2022/12/24 12:58:51;;;;;;;;;;;9.10;99.90;;;;;;5021357;28;19924;-92
2022/12/24 13:01:46;;;;;;;;;;;9.10;99.90;;;;;;5049049;28;19933;-93
2022/12/24 13:04:41;;;;;;;;;;;9.30;99.90;;;;;;5041681;28;20011;-94
2022/12/24 13:07:28;;;;;;;;;;;8.60;99.90;;;;;;5029711;28;19955;-94
2022/12/24 13:12:59;;;;;;;;;;;8.80;99.90;;;;;;5047245;28;19925;-93
2022/12/24 13:16:10;;;;;;;;;;;9.10;99.90;;;;;;5053734;28;19925;-93
2022/12/24 13:18:50;;;;;;;;;;;9.10;99.90;;;;;;5073161;28;19924;-91
2022/12/24 13:21:23;;;;;;;;;;;9.10;99.90;;;;;;4999247;28;19925;-92
2022/12/24 13:24:24;;;;;;;;;;;8.50;99.90;;;;;;5047369;28;19935;-92
2022/12/24 13:27:06;;;;;;;;;;;9.10;99.90;;;;;;5038596;28;19928;-94
2022/12/24 13:30:13;;;;;;;;;;;8.50;99.90;;;;;;5027060;28;19924;-95
2022/12/24 13:32:57;;;;;;;;;;;;;;;;;;;;;
2022/12/24 13:35:34;;;;;;;;;;;9.00;99.90;;;;;;5069904;28;20011;-89
2022/12/24 13:38:45;;;;;;;;;;;9.00;99.90;;;;;;5070451;28;19935;-93
2022/12/24 13:41:34;;;;;;;;;;;9.00;99.90;;;;;;5036325;28;19932;-94
2022/12/24 13:44:18;;;;;;;;;;;8.90;99.90;;;;;;5057916;28;19924;-91
2022/12/24 13:47:20;;;;;;;;;;;;;;;;;;;;;
2022/12/24 13:50:31;;;;;;;;;;;;;;;;;;;;;
2022/12/24 13:53:35;;;;;;;;;;;8.90;99.90;;;;;;5028499;28;19955;-89
2022/12/24 13:56:16;;;;;;;;;;;8.90;99.90;;;;;;5027111;28;19925;-89
2022/12/24 13:59:03;;;;;;;;;;;;;;;;;;;;;
2022/12/24 14:01:39;;;;;;;;;;;8.80;99.90;;;;;;5039554;28;19932;-90
2022/12/24 14:04:11;;;;;;;;;;;8.80;99.90;;;;;;5033756;28;19983;-91
2022/12/24 14:07:11;;;;;;;;;;;8.80;99.90;;;;;;5027116;28;19932;-92
2022/12/24 14:09:59;;;;;;;;;;;8.60;99.90;;;;;;5038968;28;20241;-90
2022/12/24 14:12:51;;;;;;;;;;;8.80;99.90;;;;;;5021520;28;19931;-90
2022/12/24 14:15:38;;;;;;;;;;;8.80;99.90;;;;;;5022593;28;20028;-91
2022/12/24 14:18:07;;;;;;;;;;;8.80;99.90;;;;;;5031427;28;19983;-90
2022/12/24 14:20:35;;;;;;;;;;;8.50;99.90;;;;;;5004831;28;19932;-90
2022/12/24 14:23:34;;;;;;;;;;;8.50;99.90;;;;;;4999887;28;19956;-90
2022/12/24 14:26:06;;;;;;;;;;;8.70;99.90;;;;;;4998295;28;19924;-89
2022/12/24 14:29:06;;;;;;;;;;;8.00;99.90;;;;;;5020520;28;19951;-90
2022/12/24 14:31:57;;;;;;;;;;;8.60;99.90;;;;;;5011705;28;20299;-93
2022/12/24 14:34:26;;;;;;;;;;;8.60;99.90;;;;;;5015250;28;20261;-94
2022/12/24 14:37:24;;;;;;;;;;;8.60;99.90;;;;;;5039409;28;19925;-89
2022/12/24 14:43:14;;;;;;;;;;;7.90;99.90;;;;;;5051749;28;20011;-90
2022/12/24 14:46:08;;;;;;;;;;;7.80;99.90;;;;;;5040088;28;19951;-91
2022/12/24 14:49:03;;;;;;;;;;;8.40;99.90;;;;;;5036913;28;19932;-89
2022/12/24 14:51:36;;;;;;;;;;;8.30;99.90;;;;;;5062218;28;20311;-90
2022/12/24 14:54:20;;;;;;;;;;;8.30;99.90;;;;;;5058630;28;19994;-92
2022/12/24 14:57:05;;;;;;;;;;;8.20;99.90;;;;;;5056865;28;19939;-89
2022/12/24 14:59:49;;;;;;;;;;;8.10;99.90;;;;;;5038066;28;19986;-88
2022/12/24 15:02:31;;;;;;;;;;;8.00;99.90;;;;;;5072894;28;20039;-90
2022/12/24 15:05:11;;;;;;;;;;;8.10;99.90;;;;;;5056025;28;19931;-89
2022/12/24 15:07:48;;;;;;;;;;;8.00;99.90;;;;;;5022668;28;19967;-88
2022/12/24 15:10:24;;;;;;;;;;;8.00;99.90;;;;;;5046230;28;20003;-88
2022/12/24 15:12:55;;;;;;;;;;;7.60;99.90;;;;;;5050816;28;19933;-88
2022/12/24 15:15:29;;;;;;;;;;;8.00;99.90;;;;;;5053182;28;20005;-90
2022/12/24 15:17:56;;;;;;;;;;;7.40;99.90;;;;;;5036187;28;19924;-89
2022/12/24 15:20:26;;;;;;;;;;;7.60;99.90;;;;;;5058890;28;20295;-89
2022/12/24 15:23:23;;;;;;;;;;;;;;;;;;;;;
2022/12/24 15:26:20;;;;;;;;;;;7.80;99.90;;;;;;5062624;28;19970;-90
2022/12/24 15:29:09;;;;;;;;;;;7.60;99.90;;;;;;5055893;28;20017;-89
2022/12/24 15:31:53;;;;;;;;;;;7.60;99.90;;;;;;5061759;28;20366;-90
2022/12/24 15:34:37;;;;;;;;;;;7.60;99.90;;;;;;5033116;28;19963;-89
2022/12/24 15:37:36;;;;;;;;;;;7.40;99.90;;;;;;5056710;28;19924;-90
2022/12/24 15:40:07;;;;;;;;;;;7.40;99.90;;;;;;5046353;28;20058;-91
2022/12/24 15:43:02;;;;;;;;;;;7.40;99.90;;;;;;5057164;28;20449;-91
2022/12/24 15:46:03;;;;;;;;;;;;;;;;;;;;;
2022/12/24 15:48:37;;;;;;;;;;;7.10;99.90;;;;;;5039216;28;19925;-92
2022/12/24 15:51:41;;;;;;;;;;;7.00;99.90;;;;;;5011432;28;20004;-90
2022/12/24 15:57:41;;;;;;;;;;;6.90;99.90;;;;;;4988848;28;20402;-92
2022/12/24 16:00:30;;;;;;;;;;;;;;;;;;;;;
2022/12/24 16:03:33;;;;;;;;;;;6.70;99.90;;;;;;5032266;28;19924;-90
2022/12/24 16:06:14;;;;;;;;;;;6.70;99.90;;;;;;5024989;28;19925;-90
2022/12/24 16:09:01;;;;;;;;;;;6.60;99.90;;;;;;5035630;28;19963;-90
2022/12/24 16:11:35;;;;;;;;;;;6.50;99.90;;;;;;5033326;28;20396;-91
2022/12/24 16:17:18;;;;;;;;;;;5.90;99.90;;;;;;5028493;28;19924;-90
2022/12/24 16:19:59;;;;;;;;;;;5.90;99.90;;;;;;5018180;28;19949;-91
2022/12/24 16:22:34;;;;;;;;;;;6.30;99.90;;;;;;5018937;28;19931;-89
2022/12/24 16:25:29;;;;;;;;;;;;;;;;;;;;;
2022/12/24 16:31:21;;;;;;;;;;;6.20;99.90;;;;;;4993590;28;19925;-90
2022/12/24 16:36:42;;;;;;;;;;;;;;;;;;;;;
2022/12/24 16:39:34;;;;;;;;;;;6.10;99.90;;;;;;5024056;28;19926;-91
2022/12/24 16:45:17;;;;;;;;;;;6.10;99.90;;;;;;5024888;28;19925;-93
2022/12/24 16:47:58;;;;;;;;;;;5.30;99.90;;;;;;4960109;28;19926;-91
2022/12/24 16:50:47;;;;;;;;;;;5.60;99.90;;;;;;4997601;28;19937;-91
2022/12/24 16:53:18;;;;;;;;;;;6.00;99.90;;;;;;4939089;28;19926;-90
2022/12/24 16:55:55;;;;;;;;;;;5.90;99.90;;;;;;4952655;28;19953;-91
2022/12/24 16:58:34;;;;;;;;;;;;;;;;;;;;;
2022/12/24 17:01:26;;;;;;;;;;;5.90;99.90;;;;;;4954606;28;19941;-91
2022/12/24 17:03:59;;;;;;;;;;;5.90;99.90;;;;;;4951084;28;19926;-90
2022/12/24 17:06:32;;;;;;;;;;;5.80;99.90;;;;;;4938740;28;19933;-91
2022/12/24 17:09:12;;;;;;;;;;;5.80;99.90;;;;;;5002181;28;19933;-92
2022/12/24 17:11:46;;;;;;;;;;;5.70;99.90;;;;;;4941040;28;20051;-91
2022/12/24 17:14:35;;;;;;;;;;;5.70;99.90;;;;;;4945576;28;19936;-89
2022/12/24 17:17:16;;;;;;;;;;;5.60;99.90;;;;;;4974982;28;19930;-91
2022/12/24 17:19:59;;;;;;;;;;;4.80;99.90;;;;;;4943120;28;20254;-90
2022/12/24 17:25:22;;;;;;;;;;;5.60;99.90;;;;;;5025937;28;19999;-90
2022/12/24 17:28:10;;;;;;;;;;;5.60;99.90;;;;;;5008612;28;20377;-90
2022/12/24 17:30:52;;;;;;;;;;;4.80;99.90;;;;;;4941165;28;19926;-90
2022/12/24 17:33:28;;;;;;;;;;;5.60;99.90;;;;;;4957043;28;19926;-90
2022/12/24 17:36:06;;;;;;;;;;;4.90;99.90;;;;;;5006687;28;20346;-90
2022/12/24 17:38:40;;;;;;;;;;;5.40;99.90;;;;;;4957257;28;19965;-90
2022/12/24 17:41:19;;;;;;;;;;;5.50;99.90;;;;;;4957869;28;19940;-90
2022/12/24 17:44:07;;;;;;;;;;;4.90;99.90;;;;;;4941024;28;20020;-90
2022/12/24 17:46:35;;;;;;;;;;;5.50;99.90;;;;;;4964925;28;20362;-90
2022/12/24 17:49:10;;;;;;;;;;;5.50;99.90;;;;;;4940666;28;20246;-90
2022/12/24 17:51:35;;;;;;;;;;;5.50;99.90;;;;;;4951265;28;19973;-91
2022/12/24 17:54:21;;;;;;;;;;;5.60;99.90;;;;;;4976112;28;19914;-93
2022/12/24 17:57:04;;;;;;;;;;;5.50;99.90;;;;;;5022128;28;19922;-91
2022/12/24 17:59:39;;;;;;;;;;;5.40;99.90;;;;;;4981094;28;19925;-91
2022/12/24 18:02:05;;;;;;;;;;;5.50;99.90;;;;;;4971185;28;19914;-93
2022/12/24 18:04:36;;;;;;;;;;;6.40;99.90;;;;;;5050763;28;19934;-90
2022/12/24 18:07:13;;;;;;;;;;;5.30;99.90;;;;;;5043877;28;19914;-91
2022/12/24 18:09:46;;;;;;;;;;;5.30;99.90;;;;;;4971913;28;19925;-90
2022/12/24 18:12:32;;;;;;;;;;;5.30;99.90;;;;;;4964960;28;19956;-92
2022/12/24 18:14:59;;;;;;;;;;;5.20;99.90;;;;;;4971354;28;19933;-90
2022/12/24 18:17:58;;;;;;;;;;;;;;;;;;;;;
2022/12/24 18:20:35;;;;;;;;;;;5.20;99.90;;;;;;4956229;28;19930;-90
2022/12/24 18:23:15;;;;;;;;;;;5.10;99.90;;;;;;4941761;28;19926;-90
2022/12/24 18:26:02;;;;;;;;;;;5.00;99.90;;;;;;5005095;28;19927;-90
2022/12/24 18:28:56;;;;;;;;;;;4.20;99.90;;;;;;4978171;28;20365;-95
2022/12/24 18:31:38;;;;;;;;;;;5.00;99.90;;;;;;4970622;28;20296;-91
2022/12/24 18:43:20;;;;;;;;;;;4.90;99.90;;;;;;4973336;28;19967;-92
2022/12/24 18:45:49;;;;;;;;;;;3.80;99.90;;;;;;4940267;28;20072;-89
2022/12/24 18:48:22;;;;;;;;;;;4.90;99.90;;;;;;4939768;28;19980;-89
2022/12/24 18:51:21;;;;;;;;;;;5.00;99.90;;;;;;4940196;28;19974;-90
2022/12/24 18:54:12;;;;;;;;;;;;;;;;;;;;;
2022/12/24 18:59:35;;;;;;;;;;;4.80;99.90;;;;;;4962719;28;19926;-89
2022/12/24 19:05:10;;;;;;;;;;;4.80;99.90;;;;;;5010521;28;19926;-90
2022/12/24 19:08:19;;;;;;;;;;;;;;;;;;;;;
2022/12/24 19:10:51;;;;;;;;;;;4.80;99.90;;;;;;4988501;28;20384;-91
2022/12/24 19:13:20;;;;;;;;;;;4.50;99.90;;;;;;4998676;28;20290;-88
2022/12/24 19:15:53;;;;;;;;;;;4.70;99.90;;;;;;4941406;28;19980;-89
2022/12/24 19:18:35;;;;;;;;;;;;;;;;;;;;;
2022/12/24 19:21:20;;;;;;;;;;;4.80;99.90;;;;;;4947623;28;19937;-90
2022/12/24 19:23:51;;;;;;;;;;;4.80;99.90;;;;;;4998572;28;20022;-90
2022/12/24 19:26:19;;;;;;;;;;;4.70;99.90;;;;;;4936708;29;20021;-90
2022/12/24 19:34:54;;;;;;;;;;;4.70;99.90;;;;;;4956974;28;19926;-89
2022/12/24 19:37:20;;;;;;;;;;;5.50;99.90;;;;;;4939638;28;19942;-91
2022/12/24 19:40:07;;;;;;;;;;;4.60;99.90;;;;;;4957708;28;19933;-90
2022/12/24 19:42:59;;;;;;;;;;;4.60;99.90;;;;;;4960022;28;19945;-89
2022/12/24 19:45:41;;;;;;;;;;;4.60;99.90;;;;;;4952752;28;19933;-90
2022/12/24 19:48:14;;;;;;;;;;;4.50;99.90;;;;;;4941892;28;20340;-89
2022/12/24 19:50:53;;;;;;;;;;;4.60;99.90;;;;;;5020347;28;20328;-90
2022/12/24 19:53:21;;;;;;;;;;;4.50;99.90;;;;;;5004627;28;19941;-90
2022/12/24 19:56:08;;;;;;;;;;;3.80;99.90;;;;;;4967931;28;19934;-90
2022/12/24 19:58:39;;;;;;;;;;;4.50;99.90;;;;;;4977788;28;20012;-90